sensor_id;sensor_type;location;lat;lon;timestamp;P1;durP1;ratioP1;P2;durP2;ratioP2
12812;SDS011;6471;50.932;6.934;2023-04-12T06:09:37;3.20;;;2.40;;
12812;SDS011;6471;50.932;6.934;2023-04-12T06:12:03;3.73;;;2.00;;
12812;SDS011;6471;50.932;6.934;2023-04-12T06:27:11;3.53;;;2.47;;
12812;SDS011;6471;50.932;6.934;2023-04-12T06:45:39;3.40;;;2.27;;
12812;SDS011;6471;50.932;6.934;2023-04-12T06:48:30;3.50;;;2.00;;
12812;SDS011;6471;50.932;6.934;2023-04-12T06:56:57;3.83;;;2.17;;
12812;SDS011;6471;50.932;6.934;2023-04-12T06:59:25;4.37;;;2.33;;
12812;SDS011;6471;50.932;6.934;2023-04-12T07:01:51;3.00;;;2.07;;
12812;SDS011;6471;50.932;6.934;2023-04-12T07:04:18;2.43;;;2.20;;
12812;SDS011;6471;50.932;6.934;2023-04-12T07:06:44;2.83;;;1.90;;
12812;SDS011;6471;50.932;6.934;2023-04-12T07:09:10;3.17;;;1.97;;
12812;SDS011;6471;50.932;6.934;2023-04-12T07:11:36;3.33;;;2.10;;
12812;SDS011;6471;50.932;6.934;2023-04-12T07:14:02;3.30;;;2.00;;
12812;SDS011;6471;50.932;6.934;2023-04-12T07:16:28;3.80;;;1.87;;
12812;SDS011;6471;50.932;6.934;2023-04-12T07:18:56;2.83;;;1.93;;
12812;SDS011;6471;50.932;6.934;2023-04-12T07:21:22;2.37;;;2.00;;
12812;SDS011;6471;50.932;6.934;2023-04-12T07:23:48;3.07;;;1.70;;
12812;SDS011;6471;50.932;6.934;2023-04-12T07:26:15;6.20;;;2.00;;
12812;SDS011;6471;50.932;6.934;2023-04-12T07:28:45;3.87;;;2.00;;
12812;SDS011;6471;50.932;6.934;2023-04-12T07:40:12;2.13;;;1.70;;
12812;SDS011;6471;50.932;6.934;2023-04-12T07:42:49;3.87;;;1.90;;
12812;SDS011;6471;50.932;6.934;2023-04-12T07:45:16;4.87;;;1.70;;
12812;SDS011;6471;50.932;6.934;2023-04-12T07:47:42;3.07;;;1.70;;
12812;SDS011;6471;50.932;6.934;2023-04-12T07:50:14;4.80;;;1.70;;
12812;SDS011;6471;50.932;6.934;2023-04-12T07:52:43;2.33;;;1.60;;
12812;SDS011;6471;50.932;6.934;2023-04-12T07:55:12;2.80;;;1.63;;
12812;SDS011;6471;50.932;6.934;2023-04-12T07:57:38;1.57;;;1.43;;
12812;SDS011;6471;50.932;6.934;2023-04-12T08:00:09;2.40;;;1.73;;
12812;SDS011;6471;50.932;6.934;2023-04-12T08:02:39;2.00;;;1.60;;
12812;SDS011;6471;50.932;6.934;2023-04-12T08:05:05;3.53;;;1.50;;
12812;SDS011;6471;50.932;6.934;2023-04-12T08:07:32;2.20;;;1.70;;
12812;SDS011;6471;50.932;6.934;2023-04-12T08:10:00;2.77;;;1.77;;
12812;SDS011;6471;50.932;6.934;2023-04-12T08:12:27;3.17;;;1.40;;
12812;SDS011;6471;50.932;6.934;2023-04-12T08:14:53;2.00;;;1.63;;
12812;SDS011;6471;50.932;6.934;2023-04-12T08:17:19;3.10;;;1.50;;
12812;SDS011;6471;50.932;6.934;2023-04-12T08:19:45;2.20;;;1.60;;
12812;SDS011;6471;50.932;6.934;2023-04-12T08:22:14;1.67;;;1.43;;
12812;SDS011;6471;50.932;6.934;2023-04-12T08:24:40;2.40;;;1.53;;
12812;SDS011;6471;50.932;6.934;2023-04-12T08:27:06;3.87;;;1.67;;
12812;SDS011;6471;50.932;6.934;2023-04-12T08:29:32;2.10;;;1.50;;
12812;SDS011;6471;50.932;6.934;2023-04-12T08:31:58;1.73;;;1.57;;
12812;SDS011;6471;50.932;6.934;2023-04-12T08:34:28;1.70;;;1.40;;
12812;SDS011;6471;50.932;6.934;2023-04-12T08:36:57;2.77;;;1.70;;
12812;SDS011;6471;50.932;6.934;2023-04-12T08:39:24;1.87;;;1.57;;
12812;SDS011;6471;50.932;6.934;2023-04-12T08:41:50;2.43;;;1.43;;
12812;SDS011;6471;50.932;6.934;2023-04-12T08:44:17;1.60;;;1.37;;
12812;SDS011;6471;50.932;6.934;2023-04-12T08:46:46;2.07;;;1.40;;
12812;SDS011;6471;50.932;6.934;2023-04-12T08:49:22;2.83;;;1.60;;
12812;SDS011;6471;50.932;6.934;2023-04-12T08:51:52;2.60;;;1.50;;
12812;SDS011;6471;50.932;6.934;2023-04-12T08:54:23;1.70;;;1.50;;
12812;SDS011;6471;50.932;6.934;2023-04-12T08:57:15;1.80;;;1.47;;
12812;SDS011;6471;50.932;6.934;2023-04-12T08:59:47;2.57;;;1.57;;
12812;SDS011;6471;50.932;6.934;2023-04-12T09:02:15;1.43;;;1.30;;
12812;SDS011;6471;50.932;6.934;2023-04-12T09:04:50;1.73;;;1.60;;
12812;SDS011;6471;50.932;6.934;2023-04-12T09:07:17;1.93;;;1.50;;
12812;SDS011;6471;50.932;6.934;2023-04-12T09:09:44;1.93;;;1.50;;
12812;SDS011;6471;50.932;6.934;2023-04-12T09:12:10;1.70;;;1.40;;
12812;SDS011;6471;50.932;6.934;2023-04-12T09:14:37;2.53;;;1.57;;
12812;SDS011;6471;50.932;6.934;2023-04-12T09:17:04;2.20;;;1.50;;
12812;SDS011;6471;50.932;6.934;2023-04-12T09:19:34;1.70;;;1.30;;
12812;SDS011;6471;50.932;6.934;2023-04-12T09:22:01;1.70;;;1.30;;
12812;SDS011;6471;50.932;6.934;2023-04-12T09:24:27;1.70;;;1.10;;
12812;SDS011;6471;50.932;6.934;2023-04-12T09:27:04;1.93;;;1.50;;
12812;SDS011;6471;50.932;6.934;2023-04-12T09:29:31;1.80;;;1.47;;
12812;SDS011;6471;50.932;6.934;2023-04-12T09:32:01;2.07;;;1.30;;
12812;SDS011;6471;50.932;6.934;2023-04-12T09:34:27;2.07;;;1.40;;
12812;SDS011;6471;50.932;6.934;2023-04-12T09:36:54;1.67;;;1.50;;
12812;SDS011;6471;50.932;6.934;2023-04-12T09:39:29;1.67;;;1.50;;
12812;SDS011;6471;50.932;6.934;2023-04-12T09:42:08;1.53;;;1.30;;
12812;SDS011;6471;50.932;6.934;2023-04-12T09:44:34;1.40;;;1.27;;
12812;SDS011;6471;50.932;6.934;2023-04-12T09:47:06;1.67;;;1.40;;
12812;SDS011;6471;50.932;6.934;2023-04-12T09:49:36;2.07;;;1.50;;
12812;SDS011;6471;50.932;6.934;2023-04-12T09:52:06;2.57;;;1.50;;
12812;SDS011;6471;50.932;6.934;2023-04-12T09:54:35;2.10;;;1.67;;
12812;SDS011;6471;50.932;6.934;2023-04-12T09:57:03;2.57;;;1.40;;
12812;SDS011;6471;50.932;6.934;2023-04-12T09:59:30;1.40;;;1.30;;
12812;SDS011;6471;50.932;6.934;2023-04-12T10:01:59;1.53;;;1.30;;
12812;SDS011;6471;50.932;6.934;2023-04-12T10:04:25;2.47;;;1.53;;
12812;SDS011;6471;50.932;6.934;2023-04-12T10:06:51;2.17;;;1.47;;
12812;SDS011;6471;50.932;6.934;2023-04-12T10:09:18;1.70;;;1.60;;
12812;SDS011;6471;50.932;6.934;2023-04-12T10:11:44;2.00;;;1.63;;
12812;SDS011;6471;50.932;6.934;2023-04-12T10:14:11;2.47;;;1.63;;
12812;SDS011;6471;50.932;6.934;2023-04-12T10:16:37;1.97;;;1.77;;
12812;SDS011;6471;50.932;6.934;2023-04-12T10:19:05;1.80;;;1.60;;
12812;SDS011;6471;50.932;6.934;2023-04-12T10:21:32;1.60;;;1.50;;
12812;SDS011;6471;50.932;6.934;2023-04-12T10:23:58;1.63;;;1.53;;
12812;SDS011;6471;50.932;6.934;2023-04-12T10:26:25;2.30;;;2.03;;
12812;SDS011;6471;50.932;6.934;2023-04-12T10:31:58;3.23;;;2.20;;
12812;SDS011;6471;50.932;6.934;2023-04-12T10:34:43;2.57;;;2.00;;
12812;SDS011;6471;50.932;6.934;2023-04-12T10:37:09;2.93;;;2.00;;
12812;SDS011;6471;50.932;6.934;2023-04-12T10:39:42;2.33;;;1.90;;
12812;SDS011;6471;50.932;6.934;2023-04-12T10:44:44;2.03;;;1.70;;
12812;SDS011;6471;50.932;6.934;2023-04-12T10:47:10;1.70;;;1.60;;
12812;SDS011;6471;50.932;6.934;2023-04-12T10:49:37;2.00;;;1.50;;
12812;SDS011;6471;50.932;6.934;2023-04-12T10:54:36;2.33;;;1.90;;
12812;SDS011;6471;50.932;6.934;2023-04-12T10:57:02;2.43;;;2.13;;
12812;SDS011;6471;50.932;6.934;2023-04-12T11:02:14;1.30;;;1.13;;
12812;SDS011;6471;50.932;6.934;2023-04-12T11:07:39;1.43;;;1.00;;
12812;SDS011;6471;50.932;6.934;2023-04-12T11:10:15;1.87;;;1.20;;
12812;SDS011;6471;50.932;6.934;2023-04-12T11:12:47;2.10;;;1.20;;
12812;SDS011;6471;50.932;6.934;2023-04-12T11:15:19;2.50;;;1.20;;
12812;SDS011;6471;50.932;6.934;2023-04-12T11:17:55;2.73;;;1.27;;
12812;SDS011;6471;50.932;6.934;2023-04-12T11:20:25;2.33;;;1.33;;
12812;SDS011;6471;50.932;6.934;2023-04-12T11:23:01;2.93;;;1.80;;
12812;SDS011;6471;50.932;6.934;2023-04-12T11:25:29;2.23;;;1.40;;
12812;SDS011;6471;50.932;6.934;2023-04-12T11:27:59;2.00;;;1.37;;
12812;SDS011;6471;50.932;6.934;2023-04-12T11:30:29;3.33;;;2.03;;
12812;SDS011;6471;50.932;6.934;2023-04-12T11:32:55;4.37;;;2.00;;
12812;SDS011;6471;50.932;6.934;2023-04-12T11:35:23;3.67;;;1.63;;
12812;SDS011;6471;50.932;6.934;2023-04-12T11:40:35;2.67;;;1.87;;
12812;SDS011;6471;50.932;6.934;2023-04-12T11:43:08;3.60;;;2.13;;
12812;SDS011;6471;50.932;6.934;2023-04-12T11:45:35;3.70;;;1.90;;
12812;SDS011;6471;50.932;6.934;2023-04-12T11:48:06;4.23;;;2.10;;
12812;SDS011;6471;50.932;6.934;2023-04-12T11:50:33;2.57;;;1.80;;
12812;SDS011;6471;50.932;6.934;2023-04-12T11:53:11;4.70;;;1.90;;
12812;SDS011;6471;50.932;6.934;2023-04-12T11:55:40;2.10;;;1.73;;
12812;SDS011;6471;50.932;6.934;2023-04-12T11:58:24;2.83;;;1.90;;
12812;SDS011;6471;50.932;6.934;2023-04-12T12:00:54;2.33;;;1.70;;
12812;SDS011;6471;50.932;6.934;2023-04-12T12:03:24;3.40;;;1.50;;
12812;SDS011;6471;50.932;6.934;2023-04-12T12:05:50;2.53;;;1.70;;
12812;SDS011;6471;50.932;6.934;2023-04-12T12:08:19;3.40;;;1.70;;
12812;SDS011;6471;50.932;6.934;2023-04-12T12:10:50;2.07;;;1.43;;
12812;SDS011;6471;50.932;6.934;2023-04-12T12:13:25;1.97;;;1.40;;
12812;SDS011;6471;50.932;6.934;2023-04-12T12:15:54;3.27;;;1.50;;
12812;SDS011;6471;50.932;6.934;2023-04-12T12:18:26;3.03;;;1.33;;
12812;SDS011;6471;50.932;6.934;2023-04-12T12:20:58;1.43;;;1.00;;
12812;SDS011;6471;50.932;6.934;2023-04-12T12:26:26;1.90;;;1.20;;
12812;SDS011;6471;50.932;6.934;2023-04-12T12:29:15;2.90;;;1.20;;
12812;SDS011;6471;50.932;6.934;2023-04-12T12:31:45;2.80;;;1.30;;
12812;SDS011;6471;50.932;6.934;2023-04-12T12:34:13;2.83;;;1.07;;
12812;SDS011;6471;50.932;6.934;2023-04-12T12:36:39;1.80;;;1.00;;
12812;SDS011;6471;50.932;6.934;2023-04-12T12:39:09;3.47;;;1.20;;
12812;SDS011;6471;50.932;6.934;2023-04-12T12:41:35;1.73;;;1.27;;
12812;SDS011;6471;50.932;6.934;2023-04-12T12:44:02;2.27;;;1.20;;
12812;SDS011;6471;50.932;6.934;2023-04-12T12:46:29;3.80;;;1.87;;
12812;SDS011;6471;50.932;6.934;2023-04-12T12:48:55;2.83;;;1.23;;
12812;SDS011;6471;50.932;6.934;2023-04-12T12:51:21;2.40;;;1.30;;
12812;SDS011;6471;50.932;6.934;2023-04-12T12:53:47;3.63;;;1.23;;
12812;SDS011;6471;50.932;6.934;2023-04-12T12:56:13;2.13;;;1.20;;
12812;SDS011;6471;50.932;6.934;2023-04-12T12:58:40;1.73;;;1.10;;
12812;SDS011;6471;50.932;6.934;2023-04-12T13:01:06;1.53;;;0.80;;
12812;SDS011;6471;50.932;6.934;2023-04-12T13:03:33;2.73;;;1.20;;
12812;SDS011;6471;50.932;6.934;2023-04-12T13:05:59;4.70;;;1.40;;
12812;SDS011;6471;50.932;6.934;2023-04-12T13:08:31;2.73;;;1.30;;
12812;SDS011;6471;50.932;6.934;2023-04-12T13:11:01;3.73;;;1.20;;
12812;SDS011;6471;50.932;6.934;2023-04-12T13:13:33;2.03;;;1.30;;
12812;SDS011;6471;50.932;6.934;2023-04-12T13:16:02;2.47;;;1.40;;
12812;SDS011;6471;50.932;6.934;2023-04-12T13:18:31;1.90;;;1.00;;
12812;SDS011;6471;50.932;6.934;2023-04-12T13:21:00;3.00;;;1.10;;
12812;SDS011;6471;50.932;6.934;2023-04-12T13:23:36;4.73;;;1.30;;
12812;SDS011;6471;50.932;6.934;2023-04-12T13:26:02;4.17;;;1.57;;
12812;SDS011;6471;50.932;6.934;2023-04-12T13:28:28;3.63;;;1.57;;
12812;SDS011;6471;50.932;6.934;2023-04-12T13:30:54;3.47;;;1.33;;
12812;SDS011;6471;50.932;6.934;2023-04-12T13:33:20;5.30;;;1.30;;
12812;SDS011;6471;50.932;6.934;2023-04-12T13:35:52;3.80;;;1.17;;
12812;SDS011;6471;50.932;6.934;2023-04-12T13:38:18;3.03;;;1.20;;
12812;SDS011;6471;50.932;6.934;2023-04-12T13:40:44;2.33;;;1.20;;
12812;SDS011;6471;50.932;6.934;2023-04-12T13:43:11;4.47;;;1.63;;
12812;SDS011;6471;50.932;6.934;2023-04-12T13:45:37;3.87;;;1.73;;
12812;SDS011;6471;50.932;6.934;2023-04-12T13:48:05;4.97;;;1.60;;
12812;SDS011;6471;50.932;6.934;2023-04-12T13:50:34;3.93;;;1.40;;
12812;SDS011;6471;50.932;6.934;2023-04-12T13:53:09;3.83;;;1.60;;
12812;SDS011;6471;50.932;6.934;2023-04-12T13:55:37;4.03;;;1.50;;
12812;SDS011;6471;50.932;6.934;2023-04-12T13:58:03;3.53;;;1.37;;
12812;SDS011;6471;50.932;6.934;2023-04-12T14:00:29;1.90;;;1.27;;
12812;SDS011;6471;50.932;6.934;2023-04-12T14:02:55;3.23;;;1.40;;
12812;SDS011;6471;50.932;6.934;2023-04-12T14:05:22;7.03;;;1.40;;
12812;SDS011;6471;50.932;6.934;2023-04-12T14:07:48;4.33;;;1.47;;
12812;SDS011;6471;50.932;6.934;2023-04-12T14:10:16;3.23;;;1.60;;
12812;SDS011;6471;50.932;6.934;2023-04-12T14:12:42;4.93;;;1.57;;
12812;SDS011;6471;50.932;6.934;2023-04-12T14:15:08;5.50;;;1.77;;
12812;SDS011;6471;50.932;6.934;2023-04-12T14:17:34;3.67;;;1.73;;
12812;SDS011;6471;50.932;6.934;2023-04-12T14:20:00;2.60;;;1.40;;
12812;SDS011;6471;50.932;6.934;2023-04-12T14:22:29;6.00;;;1.63;;
12812;SDS011;6471;50.932;6.934;2023-04-12T14:24:58;4.85;;;2.10;;
12812;SDS011;6471;50.932;6.934;2023-04-12T14:27:24;3.93;;;1.77;;
12812;SDS011;6471;50.932;6.934;2023-04-12T14:29:51;4.77;;;1.73;;
12812;SDS011;6471;50.932;6.934;2023-04-12T14:32:17;5.73;;;1.70;;
12812;SDS011;6471;50.932;6.934;2023-04-12T14:34:46;5.87;;;1.90;;
12812;SDS011;6471;50.932;6.934;2023-04-12T14:37:12;4.40;;;1.70;;
12812;SDS011;6471;50.932;6.934;2023-04-12T14:39:41;3.90;;;2.00;;
12812;SDS011;6471;50.932;6.934;2023-04-12T14:42:11;6.97;;;2.10;;
12812;SDS011;6471;50.932;6.934;2023-04-12T14:44:38;4.20;;;1.57;;
12812;SDS011;6471;50.932;6.934;2023-04-12T14:47:04;4.17;;;2.07;;
12812;SDS011;6471;50.932;6.934;2023-04-12T14:49:30;3.83;;;1.53;;
12812;SDS011;6471;50.932;6.934;2023-04-12T14:52:22;5.13;;;1.60;;
12812;SDS011;6471;50.932;6.934;2023-04-12T14:54:56;5.33;;;1.87;;
12812;SDS011;6471;50.932;6.934;2023-04-12T14:57:22;4.43;;;2.00;;
12812;SDS011;6471;50.932;6.934;2023-04-12T14:59:51;6.93;;;2.10;;
12812;SDS011;6471;50.932;6.934;2023-04-12T15:02:20;3.70;;;1.47;;
12812;SDS011;6471;50.932;6.934;2023-04-12T15:04:47;5.93;;;1.83;;
12812;SDS011;6471;50.932;6.934;2023-04-12T15:07:22;3.93;;;1.80;;
12812;SDS011;6471;50.932;6.934;2023-04-12T15:09:52;6.43;;;1.90;;
12812;SDS011;6471;50.932;6.934;2023-04-12T15:12:19;4.83;;;1.60;;
12812;SDS011;6471;50.932;6.934;2023-04-12T15:14:50;4.60;;;1.50;;
12812;SDS011;6471;50.932;6.934;2023-04-12T15:17:18;3.03;;;1.67;;
12812;SDS011;6471;50.932;6.934;2023-04-12T15:19:44;7.27;;;1.80;;
12812;SDS011;6471;50.932;6.934;2023-04-12T15:22:11;2.67;;;1.30;;
12812;SDS011;6471;50.932;6.934;2023-04-12T15:24:40;4.53;;;1.57;;
12812;SDS011;6471;50.932;6.934;2023-04-12T15:27:08;4.47;;;2.13;;
12812;SDS011;6471;50.932;6.934;2023-04-12T15:29:34;3.10;;;1.80;;
12812;SDS011;6471;50.932;6.934;2023-04-12T15:32:23;3.60;;;1.60;;
12812;SDS011;6471;50.932;6.934;2023-04-12T15:34:53;3.97;;;1.50;;
12812;SDS011;6471;50.932;6.934;2023-04-12T15:37:24;3.30;;;1.50;;
12812;SDS011;6471;50.932;6.934;2023-04-12T15:39:50;3.23;;;1.27;;
12812;SDS011;6471;50.932;6.934;2023-04-12T15:42:16;2.57;;;1.33;;
12812;SDS011;6471;50.932;6.934;2023-04-12T15:44:48;3.57;;;1.27;;
12812;SDS011;6471;50.932;6.934;2023-04-12T15:47:17;3.00;;;1.30;;
12812;SDS011;6471;50.932;6.934;2023-04-12T15:49:43;2.67;;;1.27;;
12812;SDS011;6471;50.932;6.934;2023-04-12T15:52:11;2.83;;;1.30;;
12812;SDS011;6471;50.932;6.934;2023-04-12T15:54:37;3.57;;;1.20;;
12812;SDS011;6471;50.932;6.934;2023-04-12T15:57:29;1.63;;;1.10;;
12812;SDS011;6471;50.932;6.934;2023-04-12T16:00:19;2.23;;;1.40;;
12812;SDS011;6471;50.932;6.934;2023-04-12T16:02:50;3.23;;;1.60;;
12812;SDS011;6471;50.932;6.934;2023-04-12T16:05:28;3.90;;;1.60;;
12812;SDS011;6471;50.932;6.934;2023-04-12T16:07:58;3.10;;;1.77;;
12812;SDS011;6471;50.932;6.934;2023-04-12T16:10:24;5.23;;;1.77;;
12812;SDS011;6471;50.932;6.934;2023-04-12T16:12:59;4.63;;;1.20;;
12812;SDS011;6471;50.932;6.934;2023-04-12T16:15:25;2.27;;;1.30;;
12812;SDS011;6471;50.932;6.934;2023-04-12T16:17:51;3.97;;;1.40;;
12812;SDS011;6471;50.932;6.934;2023-04-12T16:20:18;2.77;;;1.30;;
12812;SDS011;6471;50.932;6.934;2023-04-12T16:22:50;2.80;;;1.20;;
12812;SDS011;6471;50.932;6.934;2023-04-12T16:25:30;1.73;;;1.20;;
12812;SDS011;6471;50.932;6.934;2023-04-12T16:27:59;2.00;;;1.20;;
12812;SDS011;6471;50.932;6.934;2023-04-12T16:30:34;1.73;;;1.00;;
12812;SDS011;6471;50.932;6.934;2023-04-12T16:33:07;2.13;;;1.30;;
12812;SDS011;6471;50.932;6.934;2023-04-12T16:38:28;3.20;;;1.10;;
12812;SDS011;6471;50.932;6.934;2023-04-12T17:05:18;3.20;;;1.20;;
12812;SDS011;6471;50.932;6.934;2023-04-12T17:11:02;1.07;;;0.73;;
12812;SDS011;6471;50.932;6.934;2023-04-12T17:33:37;1.13;;;1.00;;
12812;SDS011;6471;50.932;6.934;2023-04-12T17:42:42;2.83;;;1.20;;
12812;SDS011;6471;50.932;6.934;2023-04-12T17:45:14;1.83;;;1.07;;
12812;SDS011;6471;50.932;6.934;2023-04-12T17:47:53;1.27;;;1.00;;
12812;SDS011;6471;50.932;6.934;2023-04-12T17:50:25;1.47;;;1.00;;
12812;SDS011;6471;50.932;6.934;2023-04-12T17:52:57;1.43;;;1.00;;
12812;SDS011;6471;50.932;6.934;2023-04-12T17:58:38;1.30;;;1.00;;
12812;SDS011;6471;50.932;6.934;2023-04-12T18:01:04;1.30;;;1.10;;
12812;SDS011;6471;50.932;6.934;2023-04-12T18:03:30;2.10;;;1.23;;
12812;SDS011;6471;50.932;6.934;2023-04-12T18:05:58;2.27;;;1.50;;
12812;SDS011;6471;50.932;6.934;2023-04-12T18:08:24;1.53;;;1.30;;
12812;SDS011;6471;50.932;6.934;2023-04-12T18:10:53;2.20;;;1.63;;
12812;SDS011;6471;50.932;6.934;2023-04-12T18:13:22;2.03;;;1.30;;
12812;SDS011;6471;50.932;6.934;2023-04-12T18:15:48;2.43;;;1.43;;
12812;SDS011;6471;50.932;6.934;2023-04-12T18:18:14;2.43;;;1.40;;
12812;SDS011;6471;50.932;6.934;2023-04-12T18:20:40;1.80;;;1.30;;
12812;SDS011;6471;50.932;6.934;2023-04-12T18:23:07;1.67;;;1.20;;
12812;SDS011;6471;50.932;6.934;2023-04-12T18:25:33;4.00;;;1.70;;
12812;SDS011;6471;50.932;6.934;2023-04-12T18:27:59;2.97;;;1.90;;
12812;SDS011;6471;50.932;6.934;2023-04-12T18:30:29;2.27;;;1.53;;
12812;SDS011;6471;50.932;6.934;2023-04-12T18:32:55;2.40;;;1.80;;
12812;SDS011;6471;50.932;6.934;2023-04-12T18:35:21;2.57;;;1.90;;
12812;SDS011;6471;50.932;6.934;2023-04-12T18:37:47;2.73;;;2.20;;
12812;SDS011;6471;50.932;6.934;2023-04-12T18:40:17;4.93;;;2.93;;
12812;SDS011;6471;50.932;6.934;2023-04-12T18:42:46;3.83;;;2.33;;
12812;SDS011;6471;50.932;6.934;2023-04-12T18:45:12;3.43;;;2.20;;
12812;SDS011;6471;50.932;6.934;2023-04-12T18:47:38;2.90;;;2.13;;
12812;SDS011;6471;50.932;6.934;2023-04-12T18:50:06;3.30;;;2.27;;
12812;SDS011;6471;50.932;6.934;2023-04-12T18:52:32;2.67;;;2.00;;
12812;SDS011;6471;50.932;6.934;2023-04-12T18:54:59;3.27;;;2.20;;
12812;SDS011;6471;50.932;6.934;2023-04-12T18:57:27;3.17;;;2.10;;
12812;SDS011;6471;50.932;6.934;2023-04-12T18:59:56;2.57;;;1.80;;
12812;SDS011;6471;50.932;6.934;2023-04-12T19:02:22;3.20;;;1.90;;
12812;SDS011;6471;50.932;6.934;2023-04-12T19:04:49;3.43;;;2.10;;
12812;SDS011;6471;50.932;6.934;2023-04-12T19:07:17;2.90;;;2.00;;
12812;SDS011;6471;50.932;6.934;2023-04-12T19:09:44;2.50;;;1.83;;
12812;SDS011;6471;50.932;6.934;2023-04-12T19:12:13;2.87;;;1.90;;
12812;SDS011;6471;50.932;6.934;2023-04-12T19:14:39;2.73;;;1.77;;
12812;SDS011;6471;50.932;6.934;2023-04-12T19:17:05;1.77;;;1.47;;
12812;SDS011;6471;50.932;6.934;2023-04-12T19:19:41;2.67;;;1.73;;
12812;SDS011;6471;50.932;6.934;2023-04-12T19:22:07;2.33;;;1.60;;
12812;SDS011;6471;50.932;6.934;2023-04-12T19:24:33;2.97;;;2.00;;
12812;SDS011;6471;50.932;6.934;2023-04-12T19:27:00;3.00;;;1.60;;
12812;SDS011;6471;50.932;6.934;2023-04-12T19:29:28;1.97;;;1.57;;
12812;SDS011;6471;50.932;6.934;2023-04-12T19:31:55;3.20;;;1.63;;
12812;SDS011;6471;50.932;6.934;2023-04-12T19:34:24;2.40;;;1.53;;
12812;SDS011;6471;50.932;6.934;2023-04-12T19:36:51;1.90;;;1.50;;
12812;SDS011;6471;50.932;6.934;2023-04-12T19:39:17;6.17;;;2.90;;
12812;SDS011;6471;50.932;6.934;2023-04-12T19:42:02;5.63;;;2.67;;
12812;SDS011;6471;50.932;6.934;2023-04-12T19:44:46;4.83;;;2.67;;
12812;SDS011;6471;50.932;6.934;2023-04-12T19:47:14;3.17;;;2.10;;
12812;SDS011;6471;50.932;6.934;2023-04-12T19:49:48;3.73;;;2.00;;
12812;SDS011;6471;50.932;6.934;2023-04-12T19:52:14;4.20;;;2.50;;
12812;SDS011;6471;50.932;6.934;2023-04-12T19:54:46;4.23;;;2.73;;
12812;SDS011;6471;50.932;6.934;2023-04-12T19:57:15;2.80;;;2.10;;
12812;SDS011;6471;50.932;6.934;2023-04-12T19:59:42;3.53;;;2.20;;
12812;SDS011;6471;50.932;6.934;2023-04-12T20:02:15;4.73;;;1.97;;
12812;SDS011;6471;50.932;6.934;2023-04-12T20:04:41;3.10;;;2.03;;
12812;SDS011;6471;50.932;6.934;2023-04-12T20:07:13;2.53;;;1.70;;
12812;SDS011;6471;50.932;6.934;2023-04-12T20:09:39;2.70;;;1.70;;
12812;SDS011;6471;50.932;6.934;2023-04-12T20:12:08;1.80;;;1.63;;
12812;SDS011;6471;50.932;6.934;2023-04-12T20:14:35;2.27;;;1.70;;
12812;SDS011;6471;50.932;6.934;2023-04-12T20:17:10;3.50;;;2.10;;
12812;SDS011;6471;50.932;6.934;2023-04-12T20:19:37;3.10;;;2.13;;
12812;SDS011;6471;50.932;6.934;2023-04-12T20:22:03;2.97;;;1.97;;
12812;SDS011;6471;50.932;6.934;2023-04-12T20:24:36;3.93;;;1.93;;
12812;SDS011;6471;50.932;6.934;2023-04-12T20:27:09;2.83;;;1.90;;
12812;SDS011;6471;50.932;6.934;2023-04-12T20:29:57;3.80;;;2.37;;
12812;SDS011;6471;50.932;6.934;2023-04-12T20:32:23;3.70;;;2.33;;
12812;SDS011;6471;50.932;6.934;2023-04-12T20:37:39;3.57;;;2.10;;
12812;SDS011;6471;50.932;6.934;2023-04-12T20:40:06;2.97;;;2.20;;
12812;SDS011;6471;50.932;6.934;2023-04-12T20:42:36;3.03;;;2.30;;
12812;SDS011;6471;50.932;6.934;2023-04-12T20:45:05;3.63;;;2.27;;
12812;SDS011;6471;50.932;6.934;2023-04-12T20:47:31;2.60;;;1.90;;
12812;SDS011;6471;50.932;6.934;2023-04-12T20:50:01;2.10;;;1.90;;
12812;SDS011;6471;50.932;6.934;2023-04-12T20:52:47;5.40;;;3.63;;
12812;SDS011;6471;50.932;6.934;2023-04-12T20:55:21;4.83;;;3.27;;
12812;SDS011;6471;50.932;6.934;2023-04-12T20:57:57;4.77;;;2.73;;
12812;SDS011;6471;50.932;6.934;2023-04-12T21:03:08;2.80;;;2.27;;
12812;SDS011;6471;50.932;6.934;2023-04-12T21:05:50;2.73;;;2.00;;
12812;SDS011;6471;50.932;6.934;2023-04-12T21:11:26;2.50;;;2.10;;
12812;SDS011;6471;50.932;6.934;2023-04-12T21:16:52;3.23;;;1.90;;
12812;SDS011;6471;50.932;6.934;2023-04-12T21:19:28;3.93;;;2.03;;
12812;SDS011;6471;50.932;6.934;2023-04-12T21:21:54;2.97;;;1.80;;
12812;SDS011;6471;50.932;6.934;2023-04-12T21:24:20;3.20;;;1.80;;
12812;SDS011;6471;50.932;6.934;2023-04-12T21:27:07;5.00;;;1.93;;
12812;SDS011;6471;50.932;6.934;2023-04-12T21:30:03;4.33;;;1.63;;
12812;SDS011;6471;50.932;6.934;2023-04-12T21:32:45;2.27;;;1.30;;
12812;SDS011;6471;50.932;6.934;2023-04-12T22:07:23;0.93;;;0.77;;
12812;SDS011;6471;50.932;6.934;2023-04-12T22:09:56;1.60;;;0.87;;
12812;SDS011;6471;50.932;6.934;2023-04-12T22:12:44;0.77;;;0.67;;
12812;SDS011;6471;50.932;6.934;2023-04-12T22:15:14;0.93;;;0.80;;
12812;SDS011;6471;50.932;6.934;2023-04-12T22:17:40;1.40;;;0.90;;
12812;SDS011;6471;50.932;6.934;2023-04-12T22:20:09;1.57;;;1.00;;
12812;SDS011;6471;50.932;6.934;2023-04-12T22:22:36;3.73;;;1.00;;
12812;SDS011;6471;50.932;6.934;2023-04-12T22:25:06;1.73;;;1.13;;
12812;SDS011;6471;50.932;6.934;2023-04-12T22:27:35;2.30;;;1.43;;
12812;SDS011;6471;50.932;6.934;2023-04-12T22:30:02;1.50;;;1.10;;
12812;SDS011;6471;50.932;6.934;2023-04-12T22:32:28;1.43;;;1.10;;
12812;SDS011;6471;50.932;6.934;2023-04-12T22:35:04;1.63;;;1.10;;
12812;SDS011;6471;50.932;6.934;2023-04-12T22:37:38;1.37;;;0.90;;
12812;SDS011;6471;50.932;6.934;2023-04-12T22:40:29;1.80;;;1.10;;
12812;SDS011;6471;50.932;6.934;2023-04-12T22:42:54;1.40;;;1.00;;
12812;SDS011;6471;50.932;6.934;2023-04-12T22:45:22;1.23;;;0.90;;
12812;SDS011;6471;50.932;6.934;2023-04-12T22:47:51;0.97;;;0.87;;
12812;SDS011;6471;50.932;6.934;2023-04-12T22:50:20;1.33;;;0.80;;
12812;SDS011;6471;50.932;6.934;2023-04-12T22:52:48;0.67;;;0.60;;
12812;SDS011;6471;50.932;6.934;2023-04-12T22:55:17;1.20;;;0.90;;
12812;SDS011;6471;50.932;6.934;2023-04-12T22:57:45;2.67;;;1.13;;
12812;SDS011;6471;50.932;6.934;2023-04-12T23:00:12;1.70;;;0.90;;
12812;SDS011;6471;50.932;6.934;2023-04-12T23:02:42;2.30;;;1.27;;
12812;SDS011;6471;50.932;6.934;2023-04-12T23:05:09;1.40;;;1.10;;
12812;SDS011;6471;50.932;6.934;2023-04-12T23:07:46;2.27;;;1.20;;
12812;SDS011;6471;50.932;6.934;2023-04-12T23:10:13;1.80;;;1.00;;
12812;SDS011;6471;50.932;6.934;2023-04-12T23:12:42;1.13;;;0.97;;
12812;SDS011;6471;50.932;6.934;2023-04-12T23:15:19;1.17;;;0.90;;
12812;SDS011;6471;50.932;6.934;2023-04-12T23:20:33;1.50;;;1.07;;
12812;SDS011;6471;50.932;6.934;2023-04-12T23:23:08;1.27;;;0.80;;
12812;SDS011;6471;50.932;6.934;2023-04-12T23:25:40;1.30;;;0.90;;
12812;SDS011;6471;50.932;6.934;2023-04-12T23:29:09;1.07;;;0.90;;
12812;SDS011;6471;50.932;6.934;2023-04-12T23:37:42;1.50;;;1.03;;
12812;SDS011;6471;50.932;6.934;2023-04-12T23:40:36;1.63;;;0.90;;
12812;SDS011;6471;50.932;6.934;2023-04-12T23:43:19;1.77;;;1.20;;
12812;SDS011;6471;50.932;6.934;2023-04-12T23:46:07;1.27;;;0.90;;
12812;SDS011;6471;50.932;6.934;2023-04-12T23:48:38;1.30;;;0.93;;
12812;SDS011;6471;50.932;6.934;2023-04-12T23:54:00;1.37;;;0.90;;
12812;SDS011;6471;50.932;6.934;2023-04-12T23:56:50;2.60;;;1.20;;
12812;SDS011;6471;50.932;6.934;2023-04-12T23:59:36;1.57;;;1.00;;
